Jay, Maine
Current Conditions -  °F | °C
As of 10:53 AM on Thursday 27 Nov 2014 (Local Time) from KAUG Reporting Station
Unknown Precip Unknown Precip  
Wind Chill: 21°   Ceiling: Unl
Heat Index: 30°   Visibility: 10mi
Dew Point: 22°   Wind: 10mph
Humidity: 72%   Direction: 340°NNW
Pressure: 29.89"   Gusts: NA
Location:  44.51°N, 70.22°W
Report Text: KAUG 271553Z AUTO 34009KT 10SM UP CLR M01/M06 A2989 RMK AO2 UPE00B32 SLP125 P0000 T10111056
Loading
Personal Weather Stations






























Interactive Weather Map New forecast layout! Learn more

10-Day Weather Forecast

Advertisements
Track Severe Weather on mobile